sensor_id;sensor_type;location;lat;lon;timestamp;P1;durP1;ratioP1;P2;durP2;ratioP2
49416;SDS011;35290;39.550;8.786;2022-07-11T00:02:01;4.22;;;1.15;;
49416;SDS011;35290;39.550;8.786;2022-07-11T00:04:28;5.00;;;0.95;;
49416;SDS011;35290;39.550;8.786;2022-07-11T00:06:55;5.85;;;1.25;;
49416;SDS011;35290;39.550;8.786;2022-07-11T00:09:20;4.35;;;0.90;;
49416;SDS011;35290;39.550;8.786;2022-07-11T00:11:46;3.60;;;1.00;;
49416;SDS011;35290;39.550;8.786;2022-07-11T00:14:13;2.22;;;1.00;;
49416;SDS011;35290;39.550;8.786;2022-07-11T00:16:38;6.38;;;1.00;;
49416;SDS011;35290;39.550;8.786;2022-07-11T00:19:04;3.75;;;1.10;;
49416;SDS011;35290;39.550;8.786;2022-07-11T00:21:31;2.60;;;1.20;;
49416;SDS011;35290;39.550;8.786;2022-07-11T00:23:57;2.42;;;0.95;;
49416;SDS011;35290;39.550;8.786;2022-07-11T00:26:22;6.55;;;1.20;;
49416;SDS011;35290;39.550;8.786;2022-07-11T00:28:48;4.20;;;1.33;;
49416;SDS011;35290;39.550;8.786;2022-07-11T00:31:13;6.68;;;1.10;;
49416;SDS011;35290;39.550;8.786;2022-07-11T00:33:39;6.43;;;1.30;;
49416;SDS011;35290;39.550;8.786;2022-07-11T00:36:05;7.18;;;1.52;;
49416;SDS011;35290;39.550;8.786;2022-07-11T00:38:30;8.18;;;1.60;;
49416;SDS011;35290;39.550;8.786;2022-07-11T00:40:56;4.82;;;1.80;;
49416;SDS011;35290;39.550;8.786;2022-07-11T00:43:31;10.43;;;2.22;;
49416;SDS011;35290;39.550;8.786;2022-07-11T00:45:57;9.05;;;2.15;;
49416;SDS011;35290;39.550;8.786;2022-07-11T00:48:23;9.32;;;1.90;;
49416;SDS011;35290;39.550;8.786;2022-07-11T00:50:48;8.65;;;1.50;;
49416;SDS011;35290;39.550;8.786;2022-07-11T00:53:14;6.13;;;1.85;;
49416;SDS011;35290;39.550;8.786;2022-07-11T00:55:40;9.52;;;1.75;;
49416;SDS011;35290;39.550;8.786;2022-07-11T00:58:05;10.60;;;1.77;;
49416;SDS011;35290;39.550;8.786;2022-07-11T01:00:31;8.75;;;1.67;;
49416;SDS011;35290;39.550;8.786;2022-07-11T01:02:57;7.82;;;1.83;;
49416;SDS011;35290;39.550;8.786;2022-07-11T01:05:22;6.88;;;1.85;;
49416;SDS011;35290;39.550;8.786;2022-07-11T01:07:48;4.32;;;1.75;;
49416;SDS011;35290;39.550;8.786;2022-07-11T01:10:13;4.70;;;1.58;;
49416;SDS011;35290;39.550;8.786;2022-07-11T01:12:39;5.00;;;1.83;;
49416;SDS011;35290;39.550;8.786;2022-07-11T01:15:05;5.45;;;1.52;;
49416;SDS011;35290;39.550;8.786;2022-07-11T01:17:32;8.23;;;2.15;;
49416;SDS011;35290;39.550;8.786;2022-07-11T01:19:58;4.85;;;1.80;;
49416;SDS011;35290;39.550;8.786;2022-07-11T01:22:25;7.30;;;2.20;;
49416;SDS011;35290;39.550;8.786;2022-07-11T01:24:54;4.45;;;1.67;;
49416;SDS011;35290;39.550;8.786;2022-07-11T01:27:20;7.03;;;1.67;;
49416;SDS011;35290;39.550;8.786;2022-07-11T01:29:47;9.73;;;2.30;;
49416;SDS011;35290;39.550;8.786;2022-07-11T01:32:13;15.75;;;1.75;;
49416;SDS011;35290;39.550;8.786;2022-07-11T01:34:39;7.72;;;1.85;;
49416;SDS011;35290;39.550;8.786;2022-07-11T01:37:04;5.28;;;1.75;;
49416;SDS011;35290;39.550;8.786;2022-07-11T01:39:30;7.90;;;1.73;;
49416;SDS011;35290;39.550;8.786;2022-07-11T01:41:58;4.72;;;1.75;;
49416;SDS011;35290;39.550;8.786;2022-07-11T01:44:24;8.32;;;2.47;;
49416;SDS011;35290;39.550;8.786;2022-07-11T01:46:50;5.97;;;1.63;;
49416;SDS011;35290;39.550;8.786;2022-07-11T01:49:16;9.88;;;1.67;;
49416;SDS011;35290;39.550;8.786;2022-07-11T01:51:42;8.18;;;2.00;;
49416;SDS011;35290;39.550;8.786;2022-07-11T01:54:07;8.35;;;2.53;;
49416;SDS011;35290;39.550;8.786;2022-07-11T01:56:33;6.15;;;2.10;;
49416;SDS011;35290;39.550;8.786;2022-07-11T01:58:58;4.75;;;2.00;;
49416;SDS011;35290;39.550;8.786;2022-07-11T02:01:24;4.65;;;1.85;;
49416;SDS011;35290;39.550;8.786;2022-07-11T02:03:51;6.47;;;1.95;;
49416;SDS011;35290;39.550;8.786;2022-07-11T02:06:17;6.68;;;1.90;;
49416;SDS011;35290;39.550;8.786;2022-07-11T02:08:42;5.53;;;1.63;;
49416;SDS011;35290;39.550;8.786;2022-07-11T02:11:08;6.70;;;1.60;;
49416;SDS011;35290;39.550;8.786;2022-07-11T02:13:34;5.45;;;1.80;;
49416;SDS011;35290;39.550;8.786;2022-07-11T02:15:59;5.63;;;1.70;;
49416;SDS011;35290;39.550;8.786;2022-07-11T02:18:26;2.85;;;1.40;;
49416;SDS011;35290;39.550;8.786;2022-07-11T02:20:53;6.65;;;1.52;;
49416;SDS011;35290;39.550;8.786;2022-07-11T02:23:20;4.03;;;1.40;;
49416;SDS011;35290;39.550;8.786;2022-07-11T02:25:46;3.72;;;1.55;;
49416;SDS011;35290;39.550;8.786;2022-07-11T02:28:14;5.65;;;1.70;;
49416;SDS011;35290;39.550;8.786;2022-07-11T02:30:41;4.20;;;1.30;;
49416;SDS011;35290;39.550;8.786;2022-07-11T02:33:07;4.95;;;1.60;;
49416;SDS011;35290;39.550;8.786;2022-07-11T02:35:36;5.93;;;1.52;;
49416;SDS011;35290;39.550;8.786;2022-07-11T02:38:02;5.65;;;1.58;;
49416;SDS011;35290;39.550;8.786;2022-07-11T02:40:28;2.95;;;1.60;;
49416;SDS011;35290;39.550;8.786;2022-07-11T02:42:53;3.28;;;1.20;;
49416;SDS011;35290;39.550;8.786;2022-07-11T02:45:20;4.43;;;1.70;;
49416;SDS011;35290;39.550;8.786;2022-07-11T02:47:46;2.92;;;1.52;;
49416;SDS011;35290;39.550;8.786;2022-07-11T02:50:12;2.83;;;1.33;;
49416;SDS011;35290;39.550;8.786;2022-07-11T02:52:38;5.63;;;1.30;;
49416;SDS011;35290;39.550;8.786;2022-07-11T02:55:06;5.18;;;1.48;;
49416;SDS011;35290;39.550;8.786;2022-07-11T02:57:34;5.88;;;1.17;;
49416;SDS011;35290;39.550;8.786;2022-07-11T03:00:01;2.88;;;1.30;;
49416;SDS011;35290;39.550;8.786;2022-07-11T03:02:30;5.43;;;1.50;;
49416;SDS011;35290;39.550;8.786;2022-07-11T03:04:56;3.15;;;1.27;;
49416;SDS011;35290;39.550;8.786;2022-07-11T03:07:23;4.65;;;1.42;;
49416;SDS011;35290;39.550;8.786;2022-07-11T03:09:52;5.32;;;1.30;;
49416;SDS011;35290;39.550;8.786;2022-07-11T03:12:18;5.43;;;1.58;;
49416;SDS011;35290;39.550;8.786;2022-07-11T03:14:44;6.28;;;1.75;;
49416;SDS011;35290;39.550;8.786;2022-07-11T03:17:10;3.67;;;1.50;;
49416;SDS011;35290;39.550;8.786;2022-07-11T03:19:35;5.82;;;2.15;;
49416;SDS011;35290;39.550;8.786;2022-07-11T03:22:02;6.07;;;1.60;;
49416;SDS011;35290;39.550;8.786;2022-07-11T03:24:28;4.82;;;1.50;;
49416;SDS011;35290;39.550;8.786;2022-07-11T03:26:54;5.10;;;1.50;;
49416;SDS011;35290;39.550;8.786;2022-07-11T03:29:19;3.28;;;1.30;;
49416;SDS011;35290;39.550;8.786;2022-07-11T03:31:45;4.72;;;1.60;;
49416;SDS011;35290;39.550;8.786;2022-07-11T03:34:10;3.83;;;1.55;;
49416;SDS011;35290;39.550;8.786;2022-07-11T03:36:36;11.35;;;2.17;;
49416;SDS011;35290;39.550;8.786;2022-07-11T03:39:01;5.13;;;1.63;;
49416;SDS011;35290;39.550;8.786;2022-07-11T03:41:27;3.17;;;1.85;;
49416;SDS011;35290;39.550;8.786;2022-07-11T03:43:53;3.17;;;1.40;;
49416;SDS011;35290;39.550;8.786;2022-07-11T03:46:18;5.63;;;1.52;;
49416;SDS011;35290;39.550;8.786;2022-07-11T03:48:44;3.88;;;1.60;;
49416;SDS011;35290;39.550;8.786;2022-07-11T03:51:09;6.28;;;2.08;;
49416;SDS011;35290;39.550;8.786;2022-07-11T03:53:35;3.00;;;1.77;;
49416;SDS011;35290;39.550;8.786;2022-07-11T03:56:00;6.00;;;1.75;;
49416;SDS011;35290;39.550;8.786;2022-07-11T03:58:26;5.28;;;1.60;;
49416;SDS011;35290;39.550;8.786;2022-07-11T04:00:51;5.70;;;1.80;;
49416;SDS011;35290;39.550;8.786;2022-07-11T04:03:17;4.18;;;1.88;;
49416;SDS011;35290;39.550;8.786;2022-07-11T04:05:42;4.97;;;2.05;;
49416;SDS011;35290;39.550;8.786;2022-07-11T04:08:08;6.90;;;2.10;;
49416;SDS011;35290;39.550;8.786;2022-07-11T04:10:33;6.07;;;1.80;;
49416;SDS011;35290;39.550;8.786;2022-07-11T04:12:59;8.90;;;2.40;;
49416;SDS011;35290;39.550;8.786;2022-07-11T04:15:25;7.95;;;1.98;;
49416;SDS011;35290;39.550;8.786;2022-07-11T04:17:50;8.32;;;2.17;;
49416;SDS011;35290;39.550;8.786;2022-07-11T04:20:16;6.03;;;2.13;;
49416;SDS011;35290;39.550;8.786;2022-07-11T04:22:41;8.60;;;2.05;;
49416;SDS011;35290;39.550;8.786;2022-07-11T04:25:07;8.38;;;2.33;;
49416;SDS011;35290;39.550;8.786;2022-07-11T04:27:33;2.95;;;1.45;;
49416;SDS011;35290;39.550;8.786;2022-07-11T04:29:58;5.72;;;1.42;;
49416;SDS011;35290;39.550;8.786;2022-07-11T04:32:24;6.65;;;1.52;;
49416;SDS011;35290;39.550;8.786;2022-07-11T04:34:49;9.20;;;2.50;;
49416;SDS011;35290;39.550;8.786;2022-07-11T04:37:15;6.38;;;2.80;;
49416;SDS011;35290;39.550;8.786;2022-07-11T04:39:40;9.15;;;3.38;;
49416;SDS011;35290;39.550;8.786;2022-07-11T04:42:06;10.63;;;3.30;;
49416;SDS011;35290;39.550;8.786;2022-07-11T04:44:32;7.60;;;2.90;;
49416;SDS011;35290;39.550;8.786;2022-07-11T04:46:58;7.70;;;2.45;;
49416;SDS011;35290;39.550;8.786;2022-07-11T04:49:23;8.10;;;2.67;;
49416;SDS011;35290;39.550;8.786;2022-07-11T04:51:49;13.98;;;2.50;;
49416;SDS011;35290;39.550;8.786;2022-07-11T04:54:14;10.57;;;2.10;;
49416;SDS011;35290;39.550;8.786;2022-07-11T04:56:41;9.75;;;2.13;;
49416;SDS011;35290;39.550;8.786;2022-07-11T04:59:06;7.75;;;2.13;;
49416;SDS011;35290;39.550;8.786;2022-07-11T05:01:32;10.07;;;2.10;;
49416;SDS011;35290;39.550;8.786;2022-07-11T05:03:59;6.75;;;1.95;;
49416;SDS011;35290;39.550;8.786;2022-07-11T05:06:25;10.18;;;2.00;;
49416;SDS011;35290;39.550;8.786;2022-07-11T05:08:51;9.57;;;2.15;;
49416;SDS011;35290;39.550;8.786;2022-07-11T05:11:16;10.13;;;2.30;;
49416;SDS011;35290;39.550;8.786;2022-07-11T05:13:42;11.25;;;2.60;;
49416;SDS011;35290;39.550;8.786;2022-07-11T05:16:07;8.07;;;2.08;;
49416;SDS011;35290;39.550;8.786;2022-07-11T05:18:33;8.75;;;2.15;;
49416;SDS011;35290;39.550;8.786;2022-07-11T05:20:58;7.95;;;2.60;;
49416;SDS011;35290;39.550;8.786;2022-07-11T05:23:24;8.13;;;2.05;;
49416;SDS011;35290;39.550;8.786;2022-07-11T05:25:49;9.10;;;2.25;;
49416;SDS011;35290;39.550;8.786;2022-07-11T05:28:15;6.88;;;3.47;;
49416;SDS011;35290;39.550;8.786;2022-07-11T05:30:40;4.97;;;3.05;;
49416;SDS011;35290;39.550;8.786;2022-07-11T05:33:06;10.93;;;3.47;;
49416;SDS011;35290;39.550;8.786;2022-07-11T05:35:32;12.20;;;3.40;;
49416;SDS011;35290;39.550;8.786;2022-07-11T05:37:58;13.82;;;2.90;;
49416;SDS011;35290;39.550;8.786;2022-07-11T05:40:23;10.20;;;2.50;;
49416;SDS011;35290;39.550;8.786;2022-07-11T05:42:49;7.68;;;2.20;;
49416;SDS011;35290;39.550;8.786;2022-07-11T05:45:15;9.18;;;2.47;;
49416;SDS011;35290;39.550;8.786;2022-07-11T05:47:40;10.38;;;2.60;;
49416;SDS011;35290;39.550;8.786;2022-07-11T05:50:06;6.05;;;2.50;;
49416;SDS011;35290;39.550;8.786;2022-07-11T05:52:31;11.55;;;2.55;;
49416;SDS011;35290;39.550;8.786;2022-07-11T05:54:57;4.95;;;1.90;;
49416;SDS011;35290;39.550;8.786;2022-07-11T05:57:24;7.53;;;2.03;;
49416;SDS011;35290;39.550;8.786;2022-07-11T05:59:49;8.02;;;1.85;;
49416;SDS011;35290;39.550;8.786;2022-07-11T06:02:15;11.43;;;2.00;;
49416;SDS011;35290;39.550;8.786;2022-07-11T06:04:41;11.20;;;1.90;;
49416;SDS011;35290;39.550;8.786;2022-07-11T06:07:08;4.75;;;2.10;;
49416;SDS011;35290;39.550;8.786;2022-07-11T06:09:34;7.32;;;1.92;;
49416;SDS011;35290;39.550;8.786;2022-07-11T06:12:00;11.20;;;2.42;;
49416;SDS011;35290;39.550;8.786;2022-07-11T06:14:26;8.25;;;2.10;;
49416;SDS011;35290;39.550;8.786;2022-07-11T06:16:52;4.45;;;1.98;;
49416;SDS011;35290;39.550;8.786;2022-07-11T06:19:18;5.72;;;1.88;;
49416;SDS011;35290;39.550;8.786;2022-07-11T06:21:43;4.13;;;1.90;;
49416;SDS011;35290;39.550;8.786;2022-07-11T06:24:09;8.13;;;1.90;;
49416;SDS011;35290;39.550;8.786;2022-07-11T06:26:35;5.57;;;1.90;;
49416;SDS011;35290;39.550;8.786;2022-07-11T06:29:00;8.32;;;1.77;;
49416;SDS011;35290;39.550;8.786;2022-07-11T06:31:26;5.72;;;1.60;;
49416;SDS011;35290;39.550;8.786;2022-07-11T06:33:52;7.80;;;1.60;;
49416;SDS011;35290;39.550;8.786;2022-07-11T06:36:25;4.22;;;1.10;;
49416;SDS011;35290;39.550;8.786;2022-07-11T06:38:51;10.15;;;1.73;;
49416;SDS011;35290;39.550;8.786;2022-07-11T06:41:17;5.18;;;1.48;;
49416;SDS011;35290;39.550;8.786;2022-07-11T06:43:43;5.07;;;1.45;;
49416;SDS011;35290;39.550;8.786;2022-07-11T06:46:09;5.20;;;1.40;;
49416;SDS011;35290;39.550;8.786;2022-07-11T06:48:34;7.13;;;1.70;;
49416;SDS011;35290;39.550;8.786;2022-07-11T06:51:00;10.10;;;1.60;;
49416;SDS011;35290;39.550;8.786;2022-07-11T06:53:25;7.40;;;1.40;;
49416;SDS011;35290;39.550;8.786;2022-07-11T06:55:51;5.07;;;1.50;;
49416;SDS011;35290;39.550;8.786;2022-07-11T06:58:17;7.15;;;1.50;;
49416;SDS011;35290;39.550;8.786;2022-07-11T07:00:58;5.95;;;1.40;;
49416;SDS011;35290;39.550;8.786;2022-07-11T07:03:34;10.85;;;1.70;;
49416;SDS011;35290;39.550;8.786;2022-07-11T07:06:00;13.85;;;1.80;;
49416;SDS011;35290;39.550;8.786;2022-07-11T07:08:26;9.32;;;1.83;;
49416;SDS011;35290;39.550;8.786;2022-07-11T07:10:53;8.93;;;2.10;;
49416;SDS011;35290;39.550;8.786;2022-07-11T07:13:19;9.10;;;1.75;;
49416;SDS011;35290;39.550;8.786;2022-07-11T07:15:46;8.02;;;1.75;;
49416;SDS011;35290;39.550;8.786;2022-07-11T07:18:13;14.15;;;2.10;;
49416;SDS011;35290;39.550;8.786;2022-07-11T07:20:39;9.15;;;1.83;;
49416;SDS011;35290;39.550;8.786;2022-07-11T07:23:04;7.03;;;2.10;;
49416;SDS011;35290;39.550;8.786;2022-07-11T07:25:30;9.13;;;2.40;;
49416;SDS011;35290;39.550;8.786;2022-07-11T07:27:55;13.30;;;2.28;;
49416;SDS011;35290;39.550;8.786;2022-07-11T07:30:21;9.35;;;2.05;;
49416;SDS011;35290;39.550;8.786;2022-07-11T07:32:46;8.50;;;1.63;;
49416;SDS011;35290;39.550;8.786;2022-07-11T07:35:12;4.28;;;1.55;;
49416;SDS011;35290;39.550;8.786;2022-07-11T07:37:38;9.80;;;1.90;;
49416;SDS011;35290;39.550;8.786;2022-07-11T07:40:03;5.60;;;2.15;;
49416;SDS011;35290;39.550;8.786;2022-07-11T07:42:29;5.85;;;1.50;;
49416;SDS011;35290;39.550;8.786;2022-07-11T07:44:55;5.00;;;1.80;;
49416;SDS011;35290;39.550;8.786;2022-07-11T07:47:21;9.77;;;1.48;;
49416;SDS011;35290;39.550;8.786;2022-07-11T07:49:46;8.82;;;1.50;;
49416;SDS011;35290;39.550;8.786;2022-07-11T07:52:12;7.53;;;1.60;;
49416;SDS011;35290;39.550;8.786;2022-07-11T07:54:37;6.30;;;1.25;;
49416;SDS011;35290;39.550;8.786;2022-07-11T07:57:03;4.30;;;1.27;;
49416;SDS011;35290;39.550;8.786;2022-07-11T07:59:29;3.75;;;1.38;;
49416;SDS011;35290;39.550;8.786;2022-07-11T08:01:55;5.47;;;1.40;;
49416;SDS011;35290;39.550;8.786;2022-07-11T08:04:20;4.93;;;1.10;;
49416;SDS011;35290;39.550;8.786;2022-07-11T08:06:46;6.32;;;1.55;;
49416;SDS011;35290;39.550;8.786;2022-07-11T08:09:12;4.93;;;1.10;;
49416;SDS011;35290;39.550;8.786;2022-07-11T08:11:37;11.15;;;1.50;;
49416;SDS011;35290;39.550;8.786;2022-07-11T08:14:04;5.15;;;1.40;;
49416;SDS011;35290;39.550;8.786;2022-07-11T08:16:30;2.45;;;1.20;;
49416;SDS011;35290;39.550;8.786;2022-07-11T08:18:57;3.08;;;1.25;;
49416;SDS011;35290;39.550;8.786;2022-07-11T08:21:24;3.15;;;1.40;;
49416;SDS011;35290;39.550;8.786;2022-07-11T08:23:50;10.25;;;1.45;;
49416;SDS011;35290;39.550;8.786;2022-07-11T08:26:15;8.13;;;1.52;;
49416;SDS011;35290;39.550;8.786;2022-07-11T08:28:41;8.48;;;1.20;;
49416;SDS011;35290;39.550;8.786;2022-07-11T08:31:07;10.75;;;1.40;;
49416;SDS011;35290;39.550;8.786;2022-07-11T08:33:33;6.30;;;1.40;;
49416;SDS011;35290;39.550;8.786;2022-07-11T08:35:59;9.82;;;1.27;;
49416;SDS011;35290;39.550;8.786;2022-07-11T08:38:24;5.75;;;1.30;;
49416;SDS011;35290;39.550;8.786;2022-07-11T08:40:50;9.52;;;1.80;;
49416;SDS011;35290;39.550;8.786;2022-07-11T08:43:16;9.95;;;1.55;;
49416;SDS011;35290;39.550;8.786;2022-07-11T08:45:42;4.65;;;1.23;;
49416;SDS011;35290;39.550;8.786;2022-07-11T08:48:09;6.03;;;1.35;;
49416;SDS011;35290;39.550;8.786;2022-07-11T08:50:35;5.63;;;1.77;;
49416;SDS011;35290;39.550;8.786;2022-07-11T08:53:03;4.93;;;1.25;;
49416;SDS011;35290;39.550;8.786;2022-07-11T08:55:29;3.90;;;1.20;;
49416;SDS011;35290;39.550;8.786;2022-07-11T08:57:55;3.63;;;1.25;;
49416;SDS011;35290;39.550;8.786;2022-07-11T09:00:21;7.28;;;1.17;;
49416;SDS011;35290;39.550;8.786;2022-07-11T09:02:47;5.53;;;1.10;;
49416;SDS011;35290;39.550;8.786;2022-07-11T09:05:14;3.65;;;1.00;;
49416;SDS011;35290;39.550;8.786;2022-07-11T09:07:43;4.97;;;1.00;;
49416;SDS011;35290;39.550;8.786;2022-07-11T09:12:37;5.25;;;1.23;;
49416;SDS011;35290;39.550;8.786;2022-07-11T09:15:02;5.00;;;1.08;;
49416;SDS011;35290;39.550;8.786;2022-07-11T09:17:28;3.17;;;1.10;;
49416;SDS011;35290;39.550;8.786;2022-07-11T09:19:58;7.90;;;2.05;;
49416;SDS011;35290;39.550;8.786;2022-07-11T09:22:24;5.72;;;1.00;;
49416;SDS011;35290;39.550;8.786;2022-07-11T09:25:09;8.98;;;1.17;;
49416;SDS011;35290;39.550;8.786;2022-07-11T09:27:47;4.20;;;0.90;;
49416;SDS011;35290;39.550;8.786;2022-07-11T09:30:14;6.82;;;1.10;;
49416;SDS011;35290;39.550;8.786;2022-07-11T09:32:42;8.68;;;1.10;;
49416;SDS011;35290;39.550;8.786;2022-07-11T09:35:17;3.75;;;1.20;;
49416;SDS011;35290;39.550;8.786;2022-07-11T09:37:43;3.95;;;1.20;;
49416;SDS011;35290;39.550;8.786;2022-07-11T09:40:12;3.17;;;1.08;;
49416;SDS011;35290;39.550;8.786;2022-07-11T09:42:48;4.90;;;1.20;;
49416;SDS011;35290;39.550;8.786;2022-07-11T09:45:21;3.63;;;1.00;;
49416;SDS011;35290;39.550;8.786;2022-07-11T09:47:49;5.10;;;0.90;;
49416;SDS011;35290;39.550;8.786;2022-07-11T09:50:19;3.40;;;1.10;;
49416;SDS011;35290;39.550;8.786;2022-07-11T09:53:05;2.63;;;1.27;;
49416;SDS011;35290;39.550;8.786;2022-07-11T09:55:35;5.88;;;1.20;;
49416;SDS011;35290;39.550;8.786;2022-07-11T09:58:03;4.78;;;1.33;;
49416;SDS011;35290;39.550;8.786;2022-07-11T10:00:33;5.97;;;1.45;;
49416;SDS011;35290;39.550;8.786;2022-07-11T10:03:00;5.72;;;1.88;;
49416;SDS011;35290;39.550;8.786;2022-07-11T10:05:26;4.22;;;1.55;;
49416;SDS011;35290;39.550;8.786;2022-07-11T10:07:52;4.47;;;1.50;;
49416;SDS011;35290;39.550;8.786;2022-07-11T10:10:18;3.60;;;1.30;;
49416;SDS011;35290;39.550;8.786;2022-07-11T10:12:44;4.10;;;1.60;;
49416;SDS011;35290;39.550;8.786;2022-07-11T10:15:13;4.68;;;1.77;;
49416;SDS011;35290;39.550;8.786;2022-07-11T10:28:36;2.47;;;1.50;;
49416;SDS011;35290;39.550;8.786;2022-07-11T10:31:05;2.40;;;1.50;;
49416;SDS011;35290;39.550;8.786;2022-07-11T10:33:58;6.00;;;1.50;;
49416;SDS011;35290;39.550;8.786;2022-07-11T10:36:26;4.65;;;1.70;;
49416;SDS011;35290;39.550;8.786;2022-07-11T10:41:43;4.53;;;1.30;;
49416;SDS011;35290;39.550;8.786;2022-07-11T10:44:09;2.40;;;1.30;;
49416;SDS011;35290;39.550;8.786;2022-07-11T10:46:36;3.63;;;1.10;;
49416;SDS011;35290;39.550;8.786;2022-07-11T11:02:31;6.55;;;1.10;;
49416;SDS011;35290;39.550;8.786;2022-07-11T11:05:00;3.45;;;1.13;;
49416;SDS011;35290;39.550;8.786;2022-07-11T11:10:47;6.75;;;1.30;;
49416;SDS011;35290;39.550;8.786;2022-07-11T11:15:41;1.55;;;0.90;;
49416;SDS011;35290;39.550;8.786;2022-07-11T11:23:30;4.47;;;0.95;;
49416;SDS011;35290;39.550;8.786;2022-07-11T11:28:30;7.65;;;1.10;;
49416;SDS011;35290;39.550;8.786;2022-07-11T11:30:57;3.40;;;1.00;;
49416;SDS011;35290;39.550;8.786;2022-07-11T11:33:27;8.57;;;1.20;;
49416;SDS011;35290;39.550;8.786;2022-07-11T11:36:07;3.85;;;1.20;;
49416;SDS011;35290;39.550;8.786;2022-07-11T11:38:37;3.03;;;1.00;;
49416;SDS011;35290;39.550;8.786;2022-07-11T11:41:04;3.95;;;1.30;;
49416;SDS011;35290;39.550;8.786;2022-07-11T11:43:33;2.92;;;1.00;;
49416;SDS011;35290;39.550;8.786;2022-07-11T11:46:03;3.55;;;1.00;;
49416;SDS011;35290;39.550;8.786;2022-07-11T11:48:30;4.00;;;1.10;;
49416;SDS011;35290;39.550;8.786;2022-07-11T11:51:04;3.22;;;0.90;;
49416;SDS011;35290;39.550;8.786;2022-07-11T11:53:37;4.30;;;0.90;;
49416;SDS011;35290;39.550;8.786;2022-07-11T11:56:16;4.30;;;1.10;;
49416;SDS011;35290;39.550;8.786;2022-07-11T12:01:28;6.88;;;1.10;;
49416;SDS011;35290;39.550;8.786;2022-07-11T12:03:56;1.42;;;0.90;;
49416;SDS011;35290;39.550;8.786;2022-07-11T12:06:23;4.35;;;1.10;;
49416;SDS011;35290;39.550;8.786;2022-07-11T12:08:50;3.33;;;0.80;;
49416;SDS011;35290;39.550;8.786;2022-07-11T12:11:16;3.30;;;1.05;;
49416;SDS011;35290;39.550;8.786;2022-07-11T12:13:42;4.60;;;0.98;;
49416;SDS011;35290;39.550;8.786;2022-07-11T12:16:14;1.80;;;0.70;;
49416;SDS011;35290;39.550;8.786;2022-07-11T12:19:00;3.03;;;0.95;;
49416;SDS011;35290;39.550;8.786;2022-07-11T12:21:27;4.40;;;0.80;;
49416;SDS011;35290;39.550;8.786;2022-07-11T12:23:53;2.40;;;0.77;;
49416;SDS011;35290;39.550;8.786;2022-07-11T12:26:19;2.85;;;1.00;;
49416;SDS011;35290;39.550;8.786;2022-07-11T12:31:40;4.53;;;0.90;;
49416;SDS011;35290;39.550;8.786;2022-07-11T12:34:10;4.80;;;0.85;;
49416;SDS011;35290;39.550;8.786;2022-07-11T12:36:36;4.80;;;0.88;;
49416;SDS011;35290;39.550;8.786;2022-07-11T12:39:02;2.80;;;0.90;;
49416;SDS011;35290;39.550;8.786;2022-07-11T12:41:29;1.45;;;0.80;;
49416;SDS011;35290;39.550;8.786;2022-07-11T12:43:55;3.58;;;0.90;;
49416;SDS011;35290;39.550;8.786;2022-07-11T12:46:40;5.72;;;0.90;;
49416;SDS011;35290;39.550;8.786;2022-07-11T12:49:08;4.65;;;0.90;;
49416;SDS011;35290;39.550;8.786;2022-07-11T12:51:38;3.65;;;0.90;;
49416;SDS011;35290;39.550;8.786;2022-07-11T12:54:09;4.22;;;0.75;;
49416;SDS011;35290;39.550;8.786;2022-07-11T12:56:36;5.35;;;0.80;;
49416;SDS011;35290;39.550;8.786;2022-07-11T12:59:03;5.03;;;0.93;;
49416;SDS011;35290;39.550;8.786;2022-07-11T13:01:29;2.22;;;0.80;;
49416;SDS011;35290;39.550;8.786;2022-07-11T13:03:55;2.53;;;0.70;;
49416;SDS011;35290;39.550;8.786;2022-07-11T13:06:21;3.58;;;0.70;;
49416;SDS011;35290;39.550;8.786;2022-07-11T13:09:07;14.50;;;1.52;;
49416;SDS011;35290;39.550;8.786;2022-07-11T13:11:33;4.50;;;1.00;;
49416;SDS011;35290;39.550;8.786;2022-07-11T13:13:59;1.33;;;0.63;;
49416;SDS011;35290;39.550;8.786;2022-07-11T13:16:25;4.20;;;0.60;;
49416;SDS011;35290;39.550;8.786;2022-07-11T13:18:51;3.53;;;0.98;;
49416;SDS011;35290;39.550;8.786;2022-07-11T13:21:17;6.05;;;0.98;;
49416;SDS011;35290;39.550;8.786;2022-07-11T13:23:43;3.22;;;0.80;;
49416;SDS011;35290;39.550;8.786;2022-07-11T13:26:08;3.65;;;0.77;;
49416;SDS011;35290;39.550;8.786;2022-07-11T13:28:35;2.70;;;0.77;;
49416;SDS011;35290;39.550;8.786;2022-07-11T13:31:02;4.72;;;0.80;;
49416;SDS011;35290;39.550;8.786;2022-07-11T13:33:30;5.53;;;0.73;;
49416;SDS011;35290;39.550;8.786;2022-07-11T13:35:57;1.27;;;0.70;;
49416;SDS011;35290;39.550;8.786;2022-07-11T13:38:22;4.75;;;0.80;;
49416;SDS011;35290;39.550;8.786;2022-07-11T13:40:48;5.15;;;0.80;;
49416;SDS011;35290;39.550;8.786;2022-07-11T13:43:14;1.55;;;0.90;;
49416;SDS011;35290;39.550;8.786;2022-07-11T13:45:40;4.53;;;1.00;;
49416;SDS011;35290;39.550;8.786;2022-07-11T13:48:07;2.00;;;0.80;;
49416;SDS011;35290;39.550;8.786;2022-07-11T13:50:32;7.35;;;0.90;;
49416;SDS011;35290;39.550;8.786;2022-07-11T13:52:58;4.78;;;0.80;;
49416;SDS011;35290;39.550;8.786;2022-07-11T13:55:24;6.22;;;0.85;;
49416;SDS011;35290;39.550;8.786;2022-07-11T13:57:56;6.32;;;1.02;;
49416;SDS011;35290;39.550;8.786;2022-07-11T14:00:23;4.20;;;0.90;;
49416;SDS011;35290;39.550;8.786;2022-07-11T14:02:50;8.20;;;0.90;;
49416;SDS011;35290;39.550;8.786;2022-07-11T14:05:16;3.13;;;0.88;;
49416;SDS011;35290;39.550;8.786;2022-07-11T14:07:43;5.78;;;0.80;;
49416;SDS011;35290;39.550;8.786;2022-07-11T14:10:09;4.90;;;0.75;;
49416;SDS011;35290;39.550;8.786;2022-07-11T14:12:35;3.13;;;0.60;;
49416;SDS011;35290;39.550;8.786;2022-07-11T14:15:01;3.88;;;0.80;;
49416;SDS011;35290;39.550;8.786;2022-07-11T14:17:28;5.85;;;1.15;;
49416;SDS011;35290;39.550;8.786;2022-07-11T14:19:53;7.95;;;0.98;;
49416;SDS011;35290;39.550;8.786;2022-07-11T14:22:21;8.60;;;1.10;;
49416;SDS011;35290;39.550;8.786;2022-07-11T14:24:46;7.70;;;0.80;;
49416;SDS011;35290;39.550;8.786;2022-07-11T14:27:12;4.18;;;0.80;;
49416;SDS011;35290;39.550;8.786;2022-07-11T14:29:40;6.22;;;0.90;;
49416;SDS011;35290;39.550;8.786;2022-07-11T14:32:08;4.97;;;0.80;;
49416;SDS011;35290;39.550;8.786;2022-07-11T14:34:35;4.32;;;0.70;;
49416;SDS011;35290;39.550;8.786;2022-07-11T14:37:00;2.92;;;0.82;;
49416;SDS011;35290;39.550;8.786;2022-07-11T14:39:26;5.03;;;0.70;;
49416;SDS011;35290;39.550;8.786;2022-07-11T14:41:51;3.38;;;0.82;;
49416;SDS011;35290;39.550;8.786;2022-07-11T14:44:17;4.88;;;0.90;;
49416;SDS011;35290;39.550;8.786;2022-07-11T14:46:43;7.82;;;1.10;;
49416;SDS011;35290;39.550;8.786;2022-07-11T14:49:08;3.08;;;0.80;;
49416;SDS011;35290;39.550;8.786;2022-07-11T14:51:36;2.70;;;0.90;;
49416;SDS011;35290;39.550;8.786;2022-07-11T14:54:02;2.92;;;0.70;;
49416;SDS011;35290;39.550;8.786;2022-07-11T14:56:27;3.90;;;0.70;;
49416;SDS011;35290;39.550;8.786;2022-07-11T14:58:53;2.85;;;0.70;;
49416;SDS011;35290;39.550;8.786;2022-07-11T15:01:19;4.57;;;0.70;;
49416;SDS011;35290;39.550;8.786;2022-07-11T15:03:45;3.05;;;0.70;;
49416;SDS011;35290;39.550;8.786;2022-07-11T15:06:12;4.30;;;0.70;;
49416;SDS011;35290;39.550;8.786;2022-07-11T15:08:38;2.80;;;0.60;;
49416;SDS011;35290;39.550;8.786;2022-07-11T15:11:22;2.22;;;0.70;;
49416;SDS011;35290;39.550;8.786;2022-07-11T15:13:48;3.53;;;0.70;;
49416;SDS011;35290;39.550;8.786;2022-07-11T15:16:13;3.42;;;0.70;;
49416;SDS011;35290;39.550;8.786;2022-07-11T15:18:39;2.70;;;0.90;;
49416;SDS011;35290;39.550;8.786;2022-07-11T15:21:04;2.28;;;0.73;;
49416;SDS011;35290;39.550;8.786;2022-07-11T15:23:30;3.65;;;0.90;;
49416;SDS011;35290;39.550;8.786;2022-07-11T15:26:01;4.90;;;0.73;;
49416;SDS011;35290;39.550;8.786;2022-07-11T15:28:27;2.88;;;0.65;;
49416;SDS011;35290;39.550;8.786;2022-07-11T15:30:52;5.18;;;0.90;;
49416;SDS011;35290;39.550;8.786;2022-07-11T15:33:18;2.83;;;0.82;;